Time;durP1;ratioP1;P1;durP2;ratioP2;P2;SDS_P1;SDS_P2;PMS_P1;PMS_P2;Temp;Humidity;BMP_temperature;BMP_pressure;BME280_temperature;BME280_humidity;BME280_pressure;Samples;Min_cycle;Max_cycle;Signal;HPM_P1;HPM_P2
2021/04/07 00:01:20;;;;;;;17.83;14.63;;;;;;;6.98;98.60;96711.72;5013678;28;20290;-91
2021/04/07 00:03:47;;;;;;;16.07;14.37;;;;;;;6.90;98.88;96699.31;5013900;28;20203;-90
2021/04/07 00:06:16;;;;;;;14.80;13.10;;;;;;;6.64;99.50;96685.72;5013861;28;20209;-91
2021/04/07 00:08:47;;;;;;;16.50;14.73;;;;;;;6.77;99.27;96682.13;5013630;28;20204;-90
2021/04/07 00:11:14;;;;;;;15.83;13.77;;;;;;;6.55;99.83;96667.38;5013571;28;20278;-91
2021/04/07 00:13:41;;;;;;;17.70;15.50;;;;;;;6.42;99.96;96652.69;5013177;28;20286;-91
2021/04/07 00:16:08;;;;;;;17.43;13.87;;;;;;;6.44;99.98;96649.94;5013844;28;20230;-91
2021/04/07 00:18:35;;;;;;;17.67;12.90;;;;;;;6.38;100.00;96651.28;5013550;28;20207;-91
2021/04/07 00:21:02;;;;;;;15.23;13.30;;;;;;;6.52;99.95;96647.56;5013780;28;20657;-91
2021/04/07 00:23:30;;;;;;;18.30;13.67;;;;;;;6.69;99.87;96651.41;5013958;28;20257;-90
2021/04/07 00:25:57;;;;;;;18.23;14.43;;;;;;;6.74;100.00;96648.41;5013676;28;20203;-90
2021/04/07 00:28:23;;;;;;;14.40;12.83;;;;;;;6.49;100.00;96639.16;5013483;28;20234;-91
2021/04/07 00:30:50;;;;;;;16.53;14.67;;;;;;;6.35;100.00;96616.75;5013134;28;20716;-91
2021/04/07 00:33:17;;;;;;;14.77;13.27;;;;;;;6.37;100.00;96618.31;5013624;28;20277;-91
2021/04/07 00:35:44;;;;;;;14.53;13.03;;;;;;;6.33;100.00;96624.69;5013262;28;20345;-91
2021/04/07 00:38:12;;;;;;;16.60;14.20;;;;;;;6.33;100.00;96640.38;5013586;28;20278;-91
2021/04/07 00:40:40;;;;;;;15.10;13.40;;;;;;;6.02;100.00;96628.09;5013249;28;20286;-91
2021/04/07 00:43:06;;;;;;;14.77;13.27;;;;;;;5.83;100.00;96611.28;5013390;28;20226;-91
2021/04/07 00:45:33;;;;;;;16.20;14.50;;;;;;;6.09;100.00;96619.66;5013266;28;20206;-91
2021/04/07 00:48:01;;;;;;;16.93;14.30;;;;;;;6.28;99.80;96623.44;5013558;28;20203;-90
2021/04/07 00:50:29;;;;;;;16.07;13.33;;;;;;;6.22;99.43;96634.34;5013179;28;20223;-90
2021/04/07 00:52:56;;;;;;;17.13;13.60;;;;;;;6.38;98.81;96629.56;5013382;28;20199;-90
2021/04/07 00:55:25;;;;;;;13.40;12.00;;;;;;;6.41;98.51;96637.97;5013343;28;20199;-91
2021/04/07 00:57:54;;;;;;;13.63;12.23;;;;;;;6.38;98.54;96638.22;5013264;28;20250;-91
2021/04/07 01:00:22;;;;;;;15.87;11.43;;;;;;;6.18;98.75;96623.34;5013384;28;20676;-91
2021/04/07 01:02:53;;;;;;;17.87;12.80;;;;;;;6.29;98.47;96618.06;5013253;28;20203;-90
2021/04/07 01:05:20;;;;;;;13.67;12.20;;;;;;;6.12;98.69;96611.59;5012940;28;20274;-91
2021/04/07 01:07:47;;;;;;;13.83;12.20;;;;;;;6.11;98.55;96609.94;5012747;28;20230;-90
2021/04/07 01:10:14;;;;;;;14.27;11.63;;;;;;;6.23;98.30;96626.38;5012790;28;20219;-90
2021/04/07 01:12:43;;;;;;;17.00;11.83;;;;;;;6.28;98.24;96626.03;5013235;28;20290;-90
2021/04/07 01:15:13;;;;;;;13.97;12.47;;;;;;;6.30;98.15;96632.78;5012728;28;20207;-90
2021/04/07 01:17:40;;;;;;;15.27;13.37;;;;;;;6.32;98.31;96638.72;5012853;28;20201;-91
2021/04/07 01:20:08;;;;;;;15.97;12.23;;;;;;;6.13;98.78;96626.31;5013004;28;20302;-90
2021/04/07 01:22:37;;;;;;;13.50;12.17;;;;;;;6.10;98.99;96633.56;5012785;28;20301;-91
2021/04/07 01:25:06;;;;;;;16.13;12.37;;;;;;;6.13;98.96;96630.69;5014594;28;20286;-91
2021/04/07 01:27:33;;;;;;;15.27;11.97;;;;;;;6.23;98.70;96626.38;5017305;28;20737;-90
2021/04/07 01:29:59;;;;;;;17.37;11.80;;;;;;;6.35;98.53;96642.88;5016629;28;20235;-90
2021/04/07 01:32:26;;;;;;;14.10;12.13;;;;;;;6.29;98.57;96632.91;5016953;28;20569;-90
2021/04/07 01:34:53;;;;;;;14.20;12.20;;;;;;;6.14;98.60;96629.75;5016444;28;20207;-90
2021/04/07 01:37:20;;;;;;;16.10;13.17;;;;;;;6.03;98.53;96612.34;5016585;28;20199;-91
2021/04/07 01:39:47;;;;;;;19.30;13.30;;;;;;;5.98;98.44;96609.25;5016646;28;20278;-90
2021/04/07 01:42:14;;;;;;;15.87;11.80;;;;;;;6.06;98.14;96611.25;5016391;28;20308;-91
2021/04/07 01:44:42;;;;;;;14.23;12.13;;;;;;;6.10;98.05;96620.50;5016628;28;20574;-90
2021/04/07 01:47:10;;;;;;;13.03;11.50;;;;;;;6.09;98.15;96621.44;5016591;28;20195;-90
2021/04/07 01:49:36;;;;;;;13.10;11.40;;;;;;;6.07;98.31;96624.19;5016274;28;20277;-91
2021/04/07 01:52:03;;;;;;;12.13;10.67;;;;;;;6.17;98.24;96624.28;5016154;28;20294;-90
2021/04/07 01:54:30;;;;;;;13.00;11.00;;;;;;;6.13;98.44;96623.72;5016085;28;20200;-90
2021/04/07 01:56:58;;;;;;;12.67;11.10;;;;;;;6.09;98.81;96619.66;5016301;28;20199;-90
2021/04/07 01:59:28;;;;;;;12.23;10.93;;;;;;;6.09;98.92;96611.00;5016197;28;20196;-89
2021/04/07 02:01:55;;;;;;;13.07;11.47;;;;;;;6.03;99.02;96603.69;5016287;28;20195;-90
2021/04/07 02:04:23;;;;;;;14.50;11.87;;;;;;;5.94;98.89;96587.81;5016064;28;20684;-90
2021/04/07 02:06:50;;;;;;;13.93;12.00;;;;;;;5.92;98.76;96605.38;5016030;28;20582;-90
2021/04/07 02:09:17;;;;;;;17.87;13.50;;;;;;;5.59;99.42;96597.53;5015811;28;20220;-90
2021/04/07 02:11:45;;;;;;;15.87;13.57;;;;;;;5.77;99.28;96616.97;5015798;28;20341;-91
2021/04/07 02:14:12;;;;;;;16.57;12.07;;;;;;;5.42;100.00;96599.69;5016179;28;20199;-90
2021/04/07 02:16:40;;;;;;;15.70;13.90;;;;;;;5.59;99.71;96606.19;5015727;28;20206;-90
2021/04/07 02:19:08;;;;;;;14.57;12.77;;;;;;;5.60;99.76;96607.84;5015618;28;20282;-90
2021/04/07 02:21:35;;;;;;;14.17;12.37;;;;;;;5.56;99.79;96609.03;5015703;28;20203;-90
2021/04/07 02:24:02;;;;;;;12.93;11.53;;;;;;;5.76;99.44;96611.88;5016008;28;20698;-91
2021/04/07 02:26:29;;;;;;;12.67;11.37;;;;;;;5.85;99.46;96617.19;5015602;28;20199;-90
2021/04/07 02:28:56;;;;;;;29.97;22.53;;;;;;;5.69;99.96;96614.13;5015348;28;20235;-89
2021/04/07 02:31:23;;;;;;;43.57;30.63;;;;;;;5.54;100.00;96597.88;5015946;28;20295;-91
2021/04/07 02:33:50;;;;;;;33.90;26.13;;;;;;;5.61;100.00;96606.91;5015552;28;20229;-90
2021/04/07 02:36:17;;;;;;;31.33;22.90;;;;;;;5.21;100.00;96594.34;5014894;28;20294;-90
2021/04/07 02:38:44;;;;;;;98.93;59.57;;;;;;;5.33;100.00;96597.78;5015293;28;20239;-90
2021/04/07 02:41:11;;;;;;;70.83;48.90;;;;;;;5.49;100.00;96613.91;5015376;28;20264;-90
2021/04/07 02:43:37;;;;;;;47.63;34.17;;;;;;;5.12;100.00;96589.81;5015542;28;20660;-90
2021/04/07 02:46:04;;;;;;;19.40;16.53;;;;;;;5.08;100.00;96584.97;5015220;28;20748;-90
2021/04/07 02:48:31;;;;;;;22.17;16.50;;;;;;;4.96;100.00;96584.97;5015195;28;20204;-91
2021/04/07 02:50:59;;;;;;;20.33;16.97;;;;;;;5.09;100.00;96584.03;5015086;28;20315;-90
2021/04/07 02:53:26;;;;;;;22.90;19.20;;;;;;;5.22;100.00;96589.97;5015079;28;20218;-90
2021/04/07 02:55:52;;;;;;;28.63;20.87;;;;;;;5.28;100.00;96586.88;5015177;28;20227;-91
2021/04/07 02:58:19;;;;;;;22.40;18.70;;;;;;;5.22;100.00;96582.13;5014943;28;20199;-90
2021/04/07 03:00:46;;;;;;;23.77;20.60;;;;;;;5.35;100.00;96575.03;5014911;28;20204;-91
2021/04/07 03:03:13;;;;;;;23.53;19.77;;;;;;;5.27;100.00;96574.81;5015077;28;20235;-89
2021/04/07 03:05:39;;;;;;;22.20;17.03;;;;;;;5.27;100.00;96574.00;5014992;28;20730;-89
2021/04/07 03:08:07;;;;;;;22.67;14.67;;;;;;;5.24;100.00;96568.06;5015048;28;20265;-91
2021/04/07 03:10:34;;;;;;;23.57;16.93;;;;;;;5.13;100.00;96562.03;5014595;28;20227;-91
2021/04/07 03:13:01;;;;;;;17.83;12.43;;;;;;;5.24;100.00;96559.41;5014671;28;20195;-87
2021/04/07 03:15:27;;;;;;;26.30;14.37;;;;;;;5.15;100.00;96571.34;5014615;28;20207;-88
2021/04/07 03:17:57;;;;;;;36.37;24.13;;;;;;;5.13;100.00;96567.22;5016608;28;20204;-88
2021/04/07 03:20:23;;;;;;;23.50;18.97;;;;;;;4.97;100.00;96568.38;5025420;28;20196;-87
2021/04/07 03:22:50;;;;;;;24.77;16.83;;;;;;;4.77;100.00;96562.06;5013864;28;20204;-88
2021/04/07 03:25:18;;;;;;;23.00;15.63;;;;;;;4.89;100.00;96573.34;5014750;28;20661;-87
2021/04/07 03:27:45;;;;;;;19.50;15.37;;;;;;;4.99;100.00;96579.53;5014581;28;20695;-88
2021/04/07 03:30:13;;;;;;;27.53;16.97;;;;;;;4.87;100.00;96580.44;5014009;28;20298;-88
2021/04/07 03:32:40;;;;;;;33.60;22.07;;;;;;;4.79;100.00;96576.78;5014581;28;20211;-88
2021/04/07 03:35:07;;;;;;;30.43;17.47;;;;;;;4.45;100.00;96559.28;5014517;28;20204;-88
2021/04/07 03:37:34;;;;;;;74.27;29.50;;;;;;;4.43;100.00;96565.53;5014137;28;20249;-87
2021/04/07 03:40:00;;;;;;;61.17;26.00;;;;;;;4.52;100.00;96565.69;5014216;28;20203;-87
2021/04/07 03:42:28;;;;;;;48.87;25.63;;;;;;;4.49;100.00;96554.66;5013866;28;20290;-87
2021/04/07 03:44:55;;;;;;;45.20;25.30;;;;;;;4.22;100.00;96544.53;5014024;28;20241;-89
2021/04/07 03:47:22;;;;;;;36.10;20.50;;;;;;;4.52;100.00;96555.28;5013566;28;20287;-86
2021/04/07 03:49:48;;;;;;;17.20;12.73;;;;;;;4.67;100.00;96568.09;5013112;28;20223;-87
2021/04/07 03:52:15;;;;;;;23.17;15.33;;;;;;;4.55;100.00;96572.44;5013953;28;20672;-87
2021/04/07 03:54:43;;;;;;;21.63;18.30;;;;;;;4.46;100.00;96566.13;5013806;28;20273;-87
2021/04/07 03:57:11;;;;;;;14.67;12.47;;;;;;;4.55;100.00;96569.00;5013907;28;20592;-87
2021/04/07 03:59:38;;;;;;;25.13;12.00;;;;;;;4.58;100.00;96584.41;5013748;28;20294;-87
2021/04/07 04:02:05;;;;;;;25.73;14.30;;;;;;;4.50;100.00;96585.81;5013343;28;20286;-86
2021/04/07 04:04:32;;;;;;;22.33;13.97;;;;;;;4.52;100.00;96581.31;5013874;28;20239;-87
2021/04/07 04:06:59;;;;;;;10.20;9.20;;;;;;;4.70;100.00;96583.47;5013806;28;20707;-87
2021/04/07 04:09:25;;;;;;;29.97;26.87;;;;;;;4.75;100.00;96594.41;5013608;28;20246;-87
2021/04/07 04:11:52;;;;;;;136.43;103.80;;;;;;;4.40;100.00;96586.56;5013343;28;20200;-87
2021/04/07 04:14:19;;;;;;;37.13;29.60;;;;;;;4.54;100.00;96589.00;5013537;28;20199;-87
2021/04/07 04:16:47;;;;;;;23.63;21.27;;;;;;;4.39;100.00;96593.56;5013061;28;20282;-87
2021/04/07 04:19:14;;;;;;;31.13;23.10;;;;;;;4.26;100.00;96585.84;5013202;28;20227;-87
2021/04/07 04:21:41;;;;;;;13.90;11.23;;;;;;;4.26;100.00;96579.78;5013183;28;20199;-87
2021/04/07 04:24:10;;;;;;;40.67;24.17;;;;;;;4.32;100.00;96588.91;5013328;28;20223;-87
2021/04/07 04:26:36;;;;;;;17.87;13.33;;;;;;;4.41;100.00;96593.47;5013114;28;20202;-87
2021/04/07 04:29:03;;;;;;;16.43;10.77;;;;;;;4.28;100.00;96599.53;5012837;28;20788;-87
2021/04/07 04:31:30;;;;;;;16.47;9.63;;;;;;;4.43;100.00;96607.16;5013557;28;20600;-87
2021/04/07 04:33:58;;;;;;;20.53;10.00;;;;;;;4.55;100.00;96621.06;5013519;28;20203;-87
2021/04/07 04:36:25;;;;;;;17.07;11.47;;;;;;;4.59;100.00;96622.50;5013689;28;20222;-87
2021/04/07 04:38:52;;;;;;;22.40;11.73;;;;;;;4.58;100.00;96628.66;5013357;28;20215;-88
2021/04/07 04:41:19;;;;;;;21.60;11.90;;;;;;;4.66;100.00;96634.13;5013176;28;20242;-87
2021/04/07 04:43:46;;;;;;;19.40;13.00;;;;;;;4.93;99.40;96645.09;5013068;28;20290;-88
2021/04/07 04:46:12;;;;;;;15.57;12.70;;;;;;;5.00;99.23;96656.72;5013050;28;20294;-87
2021/04/07 04:48:39;;;;;;;20.77;14.47;;;;;;;4.94;99.44;96662.38;5013107;28;20242;-88
2021/04/07 04:51:07;;;;;;;35.17;13.63;;;;;;;5.15;99.04;96667.75;5012979;28;20269;-87
2021/04/07 04:53:34;;;;;;;29.03;12.43;;;;;;;5.20;98.94;96670.88;5013063;28;20290;-88
2021/04/07 04:56:01;;;;;;;30.90;12.23;;;;;;;5.32;98.63;96676.09;5013137;28;20225;-87
2021/04/07 04:58:28;;;;;;;13.73;12.03;;;;;;;5.18;98.77;96677.97;5013397;28;20232;-88
2021/04/07 05:00:54;;;;;;;16.07;12.13;;;;;;;5.19;98.57;96676.19;5012911;28;20191;-87
2021/04/07 05:03:21;;;;;;;59.37;14.50;;;;;;;5.37;98.11;96687.00;5012841;28;20203;-87
2021/04/07 05:05:48;;;;;;;25.13;12.43;;;;;;;5.42;98.19;96693.53;5013165;28;20203;-88
2021/04/07 05:08:16;;;;;;;26.87;14.73;;;;;;;5.39;98.29;96683.31;5013053;28;20207;-87
2021/04/07 05:10:43;;;;;;;161.77;65.73;;;;;;;5.35;98.19;96678.47;5012779;28;20253;-87
2021/04/07 05:13:10;;;;;;;39.97;26.50;;;;;;;5.35;97.89;96668.03;5012773;28;20265;-87
2021/04/07 05:15:37;;;;;;;36.30;16.93;;;;;;;5.38;97.28;96675.63;5012739;28;20200;-87
2021/04/07 05:18:10;;;;;;;27.33;11.93;;;;;;;5.43;96.86;96663.91;5012850;28;20251;-87
2021/04/07 05:20:38;;;;;;;30.33;18.90;;;;;;;5.63;96.27;96664.97;5012805;28;20650;-87
2021/04/07 05:23:05;;;;;;;22.47;13.70;;;;;;;5.78;95.80;96678.59;5012813;28;20560;-87
2021/04/07 05:25:32;;;;;;;67.33;50.00;;;;;;;6.02;95.33;96699.38;5012638;28;20195;-87
2021/04/07 05:28:02;;;;;;;58.53;37.10;;;;;;;6.03;94.97;96705.47;5012689;28;20254;-87
2021/04/07 05:30:58;;;;;;;68.33;48.93;;;;;;;6.06;94.56;96728.69;5012464;28;20329;-87
2021/04/07 05:33:16;;;;;;;20.47;14.50;;;;;;;5.98;94.32;96755.38;5012419;28;20257;-87
2021/04/07 05:35:43;;;;;;;32.03;14.97;;;;;;;5.84;94.32;96764.22;5012732;28;20196;-87
2021/04/07 05:38:10;;;;;;;21.13;15.57;;;;;;;5.85;94.03;96781.53;5013053;28;20287;-86
2021/04/07 05:40:37;;;;;;;17.63;13.30;;;;;;;5.90;93.64;96800.28;5012844;28;20199;-88
2021/04/07 05:43:05;;;;;;;18.33;14.03;;;;;;;6.08;93.21;96832.00;5012955;28;20200;-88
2021/04/07 05:45:32;;;;;;;19.87;15.57;;;;;;;6.21;92.94;96865.84;5012842;28;20302;-88
2021/04/07 05:47:59;;;;;;;18.90;14.73;;;;;;;6.57;92.57;96897.91;5012824;28;20267;-88
2021/04/07 05:50:26;;;;;;;27.60;17.90;;;;;;;6.57;92.55;96905.72;5012442;28;20254;-87
2021/04/07 05:52:53;;;;;;;110.83;75.83;;;;;;;6.86;92.30;96921.78;5012474;28;20243;-87
2021/04/07 05:55:20;;;;;;;31.80;23.93;;;;;;;7.09;92.13;96938.25;5012411;28;20203;-87
2021/04/07 05:57:58;;;;;;;55.07;36.70;;;;;;;7.12;92.23;96953.69;5012653;28;20303;-88
2021/04/07 06:00:25;;;;;;;26.80;19.57;;;;;;;7.09;92.35;96952.16;5012640;28;20187;-87
2021/04/07 06:02:54;;;;;;;31.17;26.97;;;;;;;7.37;92.17;96956.03;5012622;28;20783;-88
2021/04/07 06:05:22;;;;;;;35.37;20.40;;;;;;;7.69;91.97;96967.50;5012416;28;20210;-87
2021/04/07 06:07:49;;;;;;;36.77;27.37;;;;;;;7.77;91.88;96972.97;5012790;28;20257;-87
2021/04/07 06:10:16;;;;;;;35.37;27.27;;;;;;;7.95;91.75;96975.88;5012435;28;20223;-86
2021/04/07 06:12:43;;;;;;;45.83;32.93;;;;;;;7.96;91.80;96972.28;5014902;28;20200;-88
2021/04/07 06:15:12;;;;;;;93.60;60.03;;;;;;;7.98;91.80;96968.59;5015688;28;20207;-87
2021/04/07 06:17:40;;;;;;;52.10;36.70;;;;;;;8.07;91.74;96974.84;5015784;28;20199;-87
2021/04/07 06:20:08;;;;;;;25.20;19.17;;;;;;;8.15;91.75;96966.38;5015937;28;20213;-88
2021/04/07 06:22:35;;;;;;;27.57;20.03;;;;;;;8.22;91.71;96965.75;5015638;28;20247;-88
2021/04/07 06:25:03;;;;;;;20.60;17.20;;;;;;;8.25;91.73;96968.13;5015225;28;20231;-87
2021/04/07 06:27:30;;;;;;;20.43;18.13;;;;;;;8.38;91.67;96983.66;5014129;28;20528;-87
2021/04/07 06:29:59;;;;;;;17.43;14.23;;;;;;;8.70;91.41;97001.94;5014234;28;20239;-88
2021/04/07 06:32:27;;;;;;;19.27;14.47;;;;;;;8.86;91.37;97009.34;5015649;28;20199;-87
2021/04/07 06:34:54;;;;;;;18.67;16.77;;;;;;;8.97;91.46;97018.91;5015462;28;20203;-87
2021/04/07 06:37:21;;;;;;;17.00;14.83;;;;;;;8.96;91.71;97022.50;5015582;28;20342;-87
2021/04/07 06:39:48;;;;;;;15.90;13.33;;;;;;;9.17;91.72;97032.97;5015311;28;20250;-87
2021/04/07 06:42:15;;;;;;;16.27;14.60;;;;;;;9.16;91.89;97020.81;5015300;28;20668;-88
2021/04/07 06:44:42;;;;;;;15.03;13.43;;;;;;;9.35;92.03;97039.28;5015294;28;20267;-88
2021/04/07 06:47:10;;;;;;;16.77;12.00;;;;;;;8.90;92.74;97021.25;5015224;28;20209;-87
2021/04/07 06:49:41;;;;;;;14.23;12.60;;;;;;;9.19;92.72;97031.88;5014994;28;20254;-87
2021/04/07 06:52:14;;;;;;;13.13;11.80;;;;;;;9.40;92.75;97029.19;5015220;28;20209;-87
2021/04/07 06:54:42;;;;;;;15.17;11.73;;;;;;;9.86;92.70;97051.41;5015309;28;20210;-88
2021/04/07 06:57:09;;;;;;;13.77;12.27;;;;;;;9.96;93.20;97046.19;5015123;28;20799;-88
2021/04/07 06:59:37;;;;;;;13.00;11.70;;;;;;;9.91;93.83;97041.34;5014936;28;20204;-88
2021/04/07 07:02:04;;;;;;;13.63;12.23;;;;;;;9.63;94.98;97019.34;5015070;28;20663;-87
2021/04/07 07:04:31;;;;;;;16.53;12.40;;;;;;;9.93;95.71;97014.94;5015339;28;20199;-88
2021/04/07 07:07:00;;;;;;;18.37;11.63;;;;;;;10.14;96.74;97017.47;5014734;28;20199;-88
2021/04/07 07:09:27;;;;;;;17.57;15.63;;;;;;;10.56;97.85;96996.19;5014701;28;20200;-87
2021/04/07 07:11:54;;;;;;;14.03;11.13;;;;;;;10.68;99.93;96964.34;5014768;28;20207;-87
2021/04/07 07:14:22;;;;;;;20.80;16.80;;;;;;;11.38;100.00;96961.31;5014724;28;20287;-88
2021/04/07 07:16:50;;;;;;;11.20;9.90;;;;;;;11.16;100.00;96902.84;5014560;28;20204;-88
2021/04/07 07:19:24;;;;;;;14.63;11.87;;;;;;;11.21;100.00;96786.63;5014572;28;20199;-88
2021/04/07 07:21:52;;;;;;;11.73;10.53;;;;;;;11.40;100.00;96627.75;5014404;28;20206;-87
2021/04/07 07:24:34;;;;;;;12.67;11.20;;;;;;;11.19;100.00;96401.84;5014344;28;20688;-87
2021/04/07 07:27:03;;;;;;;14.03;11.17;;;;;;;11.78;100.00;96262.28;5014164;28;20227;-86
2021/04/07 07:29:31;;;;;;;13.03;11.03;;;;;;;11.64;100.00;96109.25;5014111;28;20220;-87
2021/04/07 07:31:59;;;;;;;12.73;9.37;;;;;;;11.99;100.00;96014.19;5014482;28;20286;-88
2021/04/07 07:34:27;;;;;;;11.67;9.13;;;;;;;11.50;100.00;95938.03;5014351;28;20227;-87
2021/04/07 07:36:54;;;;;;;12.23;9.97;;;;;;;10.99;100.00;95888.47;5014079;28;20296;-87
2021/04/07 07:39:27;;;;;;;12.43;11.17;;;;;;;10.83;100.00;95849.06;5014148;28;20295;-87
2021/04/07 07:41:59;;;;;;;12.07;10.03;;;;;;;11.35;100.00;95819.56;5014029;28;20208;-87
2021/04/07 07:44:27;;;;;;;11.87;10.23;;;;;;;11.69;100.00;95802.56;5014111;28;20194;-88
2021/04/07 07:47:01;;;;;;;11.23;9.77;;;;;;;12.14;100.00;95799.06;5014250;28;20630;-88
2021/04/07 07:49:28;;;;;;;11.37;10.03;;;;;;;11.86;100.00;95796.19;5013915;28;20274;-87
2021/04/07 07:51:55;;;;;;;10.87;9.07;;;;;;;11.44;100.00;95781.69;5014139;28;20288;-87
2021/04/07 07:54:23;;;;;;;12.57;9.03;;;;;;;12.02;100.00;95774.97;5014110;28;20207;-87
2021/04/07 07:56:51;;;;;;;25.27;18.70;;;;;;;12.36;100.00;95779.72;5013692;28;20217;-87
2021/04/07 07:59:29;;;;;;;12.80;10.47;;;;;;;12.95;100.00;95781.47;5014301;28;20234;-87
2021/04/07 08:01:56;;;;;;;8.70;7.87;;;;;;;12.69;100.00;95770.63;5014044;28;20636;-87
2021/04/07 08:04:24;;;;;;;8.70;7.87;;;;;;;12.54;100.00;95763.53;5013988;28;20215;-87
2021/04/07 08:06:51;;;;;;;10.60;9.33;;;;;;;12.68;100.00;95761.91;5008366;28;20199;-86
2021/04/07 08:09:18;;;;;;;12.03;8.73;;;;;;;12.67;100.00;95769.97;5008147;28;20196;-86
2021/04/07 08:11:46;;;;;;;10.03;9.03;;;;;;;12.99;100.00;95759.03;4993563;28;20227;-87
2021/04/07 08:14:15;;;;;;;8.47;7.77;;;;;;;12.72;100.00;95759.72;4993794;28;20196;-86
2021/04/07 08:16:43;;;;;;;12.53;9.13;;;;;;;12.81;100.00;95759.41;4993807;28;20214;-86
2021/04/07 08:19:11;;;;;;;11.07;9.07;;;;;;;12.48;100.00;95763.47;4993858;28;20196;-87
2021/04/07 08:21:40;;;;;;;10.17;8.37;;;;;;;12.65;100.00;95761.44;4993386;28;20211;-86
2021/04/07 08:24:10;;;;;;;9.30;8.13;;;;;;;11.87;100.00;95742.50;4993761;28;20188;-86
2021/04/07 08:26:39;;;;;;;14.00;9.23;;;;;;;11.86;100.00;95736.44;4993453;28;20208;-86
2021/04/07 08:29:07;;;;;;;9.50;8.47;;;;;;;12.50;100.00;95741.16;4993687;28;20715;-87
2021/04/07 08:31:36;;;;;;;9.73;8.10;;;;;;;11.99;100.00;95745.53;4993837;28;20325;-88
2021/04/07 08:34:06;;;;;;;9.93;8.93;;;;;;;12.84;100.00;95752.94;4993448;28;20208;-87
2021/04/07 08:36:33;;;;;;;9.63;8.73;;;;;;;13.52;100.00;95754.31;4993721;28;20207;-87
2021/04/07 08:39:03;;;;;;;10.37;9.20;;;;;;;13.01;100.00;95748.28;4993526;28;20220;-87
2021/04/07 08:41:30;;;;;;;10.17;9.07;;;;;;;12.38;100.00;95745.28;4993504;28;20195;-86
2021/04/07 08:43:57;;;;;;;8.70;7.90;;;;;;;12.65;100.00;95740.34;4993418;28;20203;-86
2021/04/07 08:46:26;;;;;;;8.77;7.33;;;;;;;12.53;100.00;95732.09;4993416;28;20259;-87
2021/04/07 08:48:54;;;;;;;10.77;9.57;;;;;;;12.70;100.00;95745.88;4993221;28;20698;-87
2021/04/07 08:51:25;;;;;;;14.20;11.23;;;;;;;12.29;100.00;95749.81;4993544;28;20220;-87
2021/04/07 08:53:57;;;;;;;9.33;7.90;;;;;;;12.06;100.00;95744.63;4993664;28;20192;-87
2021/04/07 08:56:26;;;;;;;9.60;8.07;;;;;;;11.95;100.00;95742.44;4993348;28;20282;-87
2021/04/07 08:58:55;;;;;;;9.47;8.43;;;;;;;11.84;100.00;95738.41;4993253;28;20710;-87
2021/04/07 09:01:24;;;;;;;6.60;5.97;;;;;;;11.34;100.00;95734.53;4993153;28;20203;-87
2021/04/07 09:04:04;;;;;;;9.33;7.53;;;;;;;10.96;100.00;95738.91;4993139;28;20251;-87
2021/04/07 09:06:32;;;;;;;7.73;6.33;;;;;;;11.31;100.00;95731.44;4993114;28;20184;-87
2021/04/07 09:08:59;;;;;;;15.43;11.40;;;;;;;11.68;100.00;95740.38;4993097;28;20196;-87
2021/04/07 09:11:36;;;;;;;17.50;13.20;;;;;;;12.16;100.00;95727.72;4992899;28;20232;-86
2021/04/07 09:14:05;;;;;;;7.77;6.13;;;;;;;12.12;100.00;95738.66;4993087;28;20234;-87
2021/04/07 09:16:38;;;;;;;7.07;5.43;;;;;;;12.75;100.00;95733.78;4993211;28;20208;-86
2021/04/07 09:19:21;;;;;;;8.23;6.53;;;;;;;13.50;100.00;95729.09;4992857;28;20279;-87
2021/04/07 09:22:00;;;;;;;10.27;6.13;;;;;;;13.20;100.00;95726.56;4993051;28;20195;-86
2021/04/07 09:24:34;;;;;;;8.00;6.53;;;;;;;12.73;100.00;95719.16;4996942;28;20338;-86
2021/04/07 09:27:01;;;;;;;8.53;6.83;;;;;;;13.28;100.00;95717.72;4998272;28;20271;-86
2021/04/07 09:29:28;;;;;;;10.77;9.20;;;;;;;12.47;100.00;95722.25;4992536;28;20319;-86
2021/04/07 09:31:55;;;;;;;9.50;7.97;;;;;;;12.16;100.00;95714.56;4993075;28;20227;-87
2021/04/07 09:34:24;;;;;;;7.10;6.40;;;;;;;12.32;100.00;95717.00;4992782;28;20206;-86
2021/04/07 09:36:51;;;;;;;5.53;5.03;;;;;;;12.83;100.00;95720.47;4992797;28;20207;-86
2021/04/07 09:39:23;;;;;;;8.00;5.53;;;;;;;13.66;100.00;95720.09;4993001;28;20207;-86
2021/04/07 09:41:51;;;;;;;7.27;6.50;;;;;;;13.80;100.00;95716.53;4992751;28;20224;-86
2021/04/07 09:44:19;;;;;;;9.43;6.60;;;;;;;13.60;100.00;95726.13;4992710;28;20295;-86
2021/04/07 09:46:51;;;;;;;6.80;6.23;;;;;;;14.29;100.00;95718.28;4993887;28;20274;-86
2021/04/07 09:49:18;;;;;;;7.90;6.70;;;;;;;13.23;100.00;95726.19;4996705;28;20628;-86
2021/04/07 09:51:46;;;;;;;6.50;5.87;;;;;;;12.00;100.00;95723.47;4996292;28;20224;-87
2021/04/07 09:54:15;;;;;;;7.33;6.30;;;;;;;10.88;100.00;95710.88;4996384;28;20297;-86
2021/04/07 09:57:04;;;;;;;6.27;5.67;;;;;;;11.42;100.00;95721.31;4996334;28;20201;-86
2021/04/07 09:59:34;;;;;;;6.43;5.83;;;;;;;11.49;100.00;95724.06;4993342;28;20287;-86
2021/04/07 10:02:01;;;;;;;6.00;5.50;;;;;;;11.54;100.00;95728.81;4996190;28;20202;-87
2021/04/07 10:04:29;;;;;;;7.07;6.10;;;;;;;11.24;100.00;95727.88;4996178;28;20204;-86
2021/04/07 10:06:56;;;;;;;6.10;5.20;;;;;;;10.67;100.00;95742.22;4996145;28;20204;-87
2021/04/07 10:09:29;;;;;;;5.87;4.87;;;;;;;10.35;100.00;95732.66;4996450;28;20206;-86
2021/04/07 10:11:57;;;;;;;6.17;5.40;;;;;;;10.64;100.00;95737.31;4996046;28;20602;-86
2021/04/07 10:14:25;;;;;;;7.47;5.67;;;;;;;10.82;100.00;95734.41;4995937;28;20208;-86
2021/04/07 10:16:52;;;;;;;7.53;5.40;;;;;;;10.47;100.00;95739.19;4996179;28;20225;-87
2021/04/07 10:19:19;;;;;;;44.83;32.73;;;;;;;10.51;100.00;95761.50;4996052;28;20203;-86
2021/04/07 10:21:46;;;;;;;12.30;10.40;;;;;;;10.62;100.00;95761.09;4995832;28;20197;-86
2021/04/07 10:24:16;;;;;;;21.97;16.23;;;;;;;10.63;100.00;95761.91;4996225;28;20204;-86
2021/04/07 10:26:44;;;;;;;11.93;10.63;;;;;;;10.42;100.00;95759.88;5009052;28;20566;-85
2021/04/07 10:29:25;;;;;;;6.70;5.90;;;;;;;10.53;100.00;95764.78;5004902;28;20724;-86
2021/04/07 10:31:53;;;;;;;12.80;7.77;;;;;;;10.30;100.00;95777.81;4995236;28;20284;-86
2021/04/07 10:34:30;;;;;;;8.63;6.57;;;;;;;10.62;100.00;95770.81;4995448;28;20196;-86
2021/04/07 10:36:57;;;;;;;6.30;5.07;;;;;;;10.14;100.00;95772.56;4995628;28;20204;-86
2021/04/07 10:39:24;;;;;;;4.77;4.37;;;;;;;9.49;100.00;95783.94;4995447;28;20207;-86
2021/04/07 10:41:52;;;;;;;6.23;5.63;;;;;;;9.67;100.00;95789.88;4995673;28;20200;-87
2021/04/07 10:44:24;;;;;;;6.23;4.10;;;;;;;9.59;100.00;95784.59;4995476;28;20630;-86
2021/04/07 10:46:51;;;;;;;4.80;4.40;;;;;;;9.73;100.00;95799.72;4995549;28;20227;-87
2021/04/07 10:49:19;;;;;;;4.77;4.37;;;;;;;9.53;100.00;95806.28;4995460;28;20290;-86
2021/04/07 10:51:46;;;;;;;7.93;4.77;;;;;;;9.08;100.00;95804.91;4995235;28;20220;-86
2021/04/07 10:54:13;;;;;;;7.10;6.03;;;;;;;9.47;100.00;95802.47;4995200;28;20296;-86
2021/04/07 10:56:40;;;;;;;7.30;6.60;;;;;;;9.75;100.00;95807.41;4995363;28;20754;-86
2021/04/07 10:59:12;;;;;;;10.00;9.00;;;;;;;9.74;100.00;95814.47;4994702;28;20692;-86
2021/04/07 11:01:39;;;;;;;11.30;10.30;;;;;;;9.75;100.00;95821.34;4995086;28;20184;-86
2021/04/07 11:04:13;;;;;;;10.37;6.87;;;;;;;9.85;100.00;95823.81;4995175;28;20196;-86
2021/04/07 11:06:41;;;;;;;17.57;15.70;;;;;;;9.75;100.00;95818.72;4994985;28;20207;-86
2021/04/07 11:09:08;;;;;;;16.23;12.93;;;;;;;9.65;100.00;95825.94;4994856;28;20200;-86
2021/04/07 11:11:40;;;;;;;11.43;9.00;;;;;;;9.42;100.00;95824.94;4994899;28;20234;-86
2021/04/07 11:14:08;;;;;;;6.13;5.63;;;;;;;9.38;100.00;95828.84;4995229;28;20630;-86
2021/04/07 11:16:35;;;;;;;10.60;9.60;;;;;;;9.58;100.00;95827.56;4995042;28;20242;-87
2021/04/07 11:19:14;;;;;;;29.23;20.83;;;;;;;9.52;100.00;95831.69;4995035;28;20258;-86
2021/04/07 11:21:42;;;;;;;7.33;5.87;;;;;;;9.46;100.00;95826.28;4994903;28;20275;-86
2021/04/07 11:24:09;;;;;;;5.63;5.17;;;;;;;9.19;100.00;95832.59;4994968;28;20250;-85
2021/04/07 11:26:35;;;;;;;7.57;6.77;;;;;;;9.36;100.00;95842.16;5004326;28;20222;-86